Loretto, Virginia
Current Conditions -  °F | °C
As of 7:55 AM on Saturday 22 Nov 2014 (Local Time) from KXSA Reporting Station
Clear Clear  
Wind Chill: 23°   Ceiling: Unl
Heat Index: 23°   Visibility: 10mi
Dew Point: 17°   Wind: 0mph
Humidity: 78%   Direction: NA
Pressure: 30.55"   Gusts: NA
Location:  38.08°N, 77.05°W
Report Text: KXSA 221255Z AUTO 00000KT 10SM CLR M05/M08 A3055 RMK AO2 T10491082
Loading
Personal Weather Stations






























Interactive Weather Map New forecast layout! Learn more

10-Day Weather Forecast

Advertisements
Track Severe Weather on mobile